WRI weather

Public forecast

Using degrees Fahrenheit for public forecast. Weather courtesy of forecast.io.

Current aviation weather report (METAR) for Mc Guire Air Force Base

Retrieved 2020/08/12 22:56 UTC (47 minutes ago):

KWRI 122256Z 21003KT 10SM CLR 24/22 A3003 RMK AO2A SLP168 T02380222 CHINO RWY24

Aviation forecast (TAF) for Mc Guire Air Force Base

Retrieved 2020/08/12 18:06 UTC (6 hours ago):

TAF KWRI 121800Z 1218/1324 17006KT 9000 -SHRA VCTS BKN040CB QNH3000INS TEMPO 1218/1224 3200 +TSRA BKN035CB BECMG 1300/1301 VRB05KT 9999 NSW SCT040 BKN100 QNH3003INS BECMG 1310/1311 17006KT 8000 -SHRA BR SCT005 BKN010 QNH3007INS BECMG 1312/1313 15006KT 9000 -SHRA BKN020 QNH3007INS BECMG 1317/1318 18004KT 9000 -SHRA BKN025 QNH3003INS TEMPO 1318/1324 VCTS BKN020CB TX30/1318Z TN21/1310Z